sensor_id;sensor_type;location;lat;lon;timestamp;P1;durP1;ratioP1;P2;durP2;ratioP2
20324;SDS011;10320;49.482;11.256;2024-02-04T00:01:50;2.87;;;2.50;;
20324;SDS011;10320;49.482;11.256;2024-02-04T00:04:16;3.20;;;2.60;;
20324;SDS011;10320;49.482;11.256;2024-02-04T00:06:42;2.13;;;1.93;;
20324;SDS011;10320;49.482;11.256;2024-02-04T00:09:08;3.10;;;2.47;;
20324;SDS011;10320;49.482;11.256;2024-02-04T00:11:34;2.47;;;2.27;;
20324;SDS011;10320;49.482;11.256;2024-02-04T00:14:00;4.13;;;3.33;;
20324;SDS011;10320;49.482;11.256;2024-02-04T00:16:27;2.17;;;1.97;;
20324;SDS011;10320;49.482;11.256;2024-02-04T00:18:54;2.77;;;2.57;;
20324;SDS011;10320;49.482;11.256;2024-02-04T00:21:20;2.30;;;2.10;;
20324;SDS011;10320;49.482;11.256;2024-02-04T00:23:46;2.03;;;1.90;;
20324;SDS011;10320;49.482;11.256;2024-02-04T00:26:12;2.77;;;2.50;;
20324;SDS011;10320;49.482;11.256;2024-02-04T00:28:38;5.03;;;3.53;;
20324;SDS011;10320;49.482;11.256;2024-02-04T00:31:07;8.03;;;5.37;;
20324;SDS011;10320;49.482;11.256;2024-02-04T00:33:33;2.80;;;2.40;;
20324;SDS011;10320;49.482;11.256;2024-02-04T00:36:00;5.80;;;3.97;;
20324;SDS011;10320;49.482;11.256;2024-02-04T00:38:26;5.83;;;3.70;;
20324;SDS011;10320;49.482;11.256;2024-02-04T00:40:51;2.40;;;1.70;;
20324;SDS011;10320;49.482;11.256;2024-02-04T00:43:19;2.07;;;1.90;;
20324;SDS011;10320;49.482;11.256;2024-02-04T00:45:45;1.50;;;1.40;;
20324;SDS011;10320;49.482;11.256;2024-02-04T00:48:11;1.90;;;1.67;;
20324;SDS011;10320;49.482;11.256;2024-02-04T00:50:37;1.90;;;1.57;;
20324;SDS011;10320;49.482;11.256;2024-02-04T00:53:03;1.90;;;1.53;;
20324;SDS011;10320;49.482;11.256;2024-02-04T00:55:29;1.63;;;1.53;;
20324;SDS011;10320;49.482;11.256;2024-02-04T00:57:55;1.57;;;1.47;;
20324;SDS011;10320;49.482;11.256;2024-02-04T01:00:25;1.50;;;1.40;;
20324;SDS011;10320;49.482;11.256;2024-02-04T01:02:51;1.97;;;1.80;;
20324;SDS011;10320;49.482;11.256;2024-02-04T01:05:17;1.80;;;1.70;;
20324;SDS011;10320;49.482;11.256;2024-02-04T01:07:43;2.37;;;1.80;;
20324;SDS011;10320;49.482;11.256;2024-02-04T01:10:09;1.37;;;1.27;;
20324;SDS011;10320;49.482;11.256;2024-02-04T01:12:36;1.93;;;1.60;;
20324;SDS011;10320;49.482;11.256;2024-02-04T01:15:02;1.40;;;1.30;;
20324;SDS011;10320;49.482;11.256;2024-02-04T01:17:30;2.00;;;1.80;;
20324;SDS011;10320;49.482;11.256;2024-02-04T01:19:56;1.60;;;1.50;;
20324;SDS011;10320;49.482;11.256;2024-02-04T01:22:22;1.87;;;1.60;;
20324;SDS011;10320;49.482;11.256;2024-02-04T01:24:51;2.40;;;1.43;;
20324;SDS011;10320;49.482;11.256;2024-02-04T01:27:17;2.10;;;1.63;;
20324;SDS011;10320;49.482;11.256;2024-02-04T01:29:43;1.80;;;1.40;;
20324;SDS011;10320;49.482;11.256;2024-02-04T01:32:09;1.80;;;1.53;;
20324;SDS011;10320;49.482;11.256;2024-02-04T01:34:35;2.40;;;1.40;;
20324;SDS011;10320;49.482;11.256;2024-02-04T01:37:01;2.60;;;1.43;;
20324;SDS011;10320;49.482;11.256;2024-02-04T01:39:27;1.40;;;1.30;;
20324;SDS011;10320;49.482;11.256;2024-02-04T01:41:53;2.03;;;1.43;;
20324;SDS011;10320;49.482;11.256;2024-02-04T01:44:19;1.50;;;1.40;;
20324;SDS011;10320;49.482;11.256;2024-02-04T01:46:46;1.73;;;1.40;;
20324;SDS011;10320;49.482;11.256;2024-02-04T01:49:12;2.23;;;1.43;;
20324;SDS011;10320;49.482;11.256;2024-02-04T01:51:38;1.30;;;1.20;;
20324;SDS011;10320;49.482;11.256;2024-02-04T01:54:04;1.50;;;1.40;;
20324;SDS011;10320;49.482;11.256;2024-02-04T01:56:31;1.43;;;1.33;;
20324;SDS011;10320;49.482;11.256;2024-02-04T01:58:57;1.93;;;1.40;;
20324;SDS011;10320;49.482;11.256;2024-02-04T02:01:24;1.73;;;1.60;;
20324;SDS011;10320;49.482;11.256;2024-02-04T02:03:50;1.50;;;1.40;;
20324;SDS011;10320;49.482;11.256;2024-02-04T02:06:16;1.50;;;1.40;;
20324;SDS011;10320;49.482;11.256;2024-02-04T02:08:42;1.63;;;1.53;;
20324;SDS011;10320;49.482;11.256;2024-02-04T02:11:11;2.70;;;1.60;;
20324;SDS011;10320;49.482;11.256;2024-02-04T02:13:37;1.70;;;1.60;;
20324;SDS011;10320;49.482;11.256;2024-02-04T02:16:07;1.77;;;1.63;;
20324;SDS011;10320;49.482;11.256;2024-02-04T02:18:39;1.80;;;1.60;;
20324;SDS011;10320;49.482;11.256;2024-02-04T02:26:19;1.80;;;1.60;;
20324;SDS011;10320;49.482;11.256;2024-02-04T02:28:45;2.10;;;1.80;;
20324;SDS011;10320;49.482;11.256;2024-02-04T02:31:11;1.77;;;1.67;;
20324;SDS011;10320;49.482;11.256;2024-02-04T02:33:37;2.33;;;1.80;;
20324;SDS011;10320;49.482;11.256;2024-02-04T02:36:05;1.90;;;1.80;;
20324;SDS011;10320;49.482;11.256;2024-02-04T02:38:33;1.70;;;1.60;;
20324;SDS011;10320;49.482;11.256;2024-02-04T02:41:03;2.00;;;1.80;;
20324;SDS011;10320;49.482;11.256;2024-02-04T02:43:30;2.07;;;1.83;;
20324;SDS011;10320;49.482;11.256;2024-02-04T02:45:57;2.00;;;1.40;;
20324;SDS011;10320;49.482;11.256;2024-02-04T02:48:23;1.70;;;1.60;;
20324;SDS011;10320;49.482;11.256;2024-02-04T02:50:50;1.80;;;1.50;;
20324;SDS011;10320;49.482;11.256;2024-02-04T02:53:16;2.10;;;1.77;;
20324;SDS011;10320;49.482;11.256;2024-02-04T02:55:44;1.73;;;1.53;;
20324;SDS011;10320;49.482;11.256;2024-02-04T02:58:11;1.57;;;1.47;;
20324;SDS011;10320;49.482;11.256;2024-02-04T03:00:37;2.47;;;1.70;;
20324;SDS011;10320;49.482;11.256;2024-02-04T03:03:03;1.77;;;1.63;;
20324;SDS011;10320;49.482;11.256;2024-02-04T03:05:29;1.70;;;1.60;;
20324;SDS011;10320;49.482;11.256;2024-02-04T03:07:56;2.50;;;1.90;;
20324;SDS011;10320;49.482;11.256;2024-02-04T03:10:22;2.10;;;1.73;;
20324;SDS011;10320;49.482;11.256;2024-02-04T03:12:48;1.73;;;1.63;;
20324;SDS011;10320;49.482;11.256;2024-02-04T03:15:14;1.70;;;1.60;;
20324;SDS011;10320;49.482;11.256;2024-02-04T03:17:42;2.07;;;1.87;;
20324;SDS011;10320;49.482;11.256;2024-02-04T03:20:08;1.87;;;1.63;;
20324;SDS011;10320;49.482;11.256;2024-02-04T03:22:35;2.17;;;1.90;;
20324;SDS011;10320;49.482;11.256;2024-02-04T03:25:00;1.77;;;1.67;;
20324;SDS011;10320;49.482;11.256;2024-02-04T03:27:26;1.60;;;1.50;;
20324;SDS011;10320;49.482;11.256;2024-02-04T03:29:52;1.90;;;1.70;;
20324;SDS011;10320;49.482;11.256;2024-02-04T03:32:18;1.60;;;1.50;;
20324;SDS011;10320;49.482;11.256;2024-02-04T03:34:44;2.17;;;1.80;;
20324;SDS011;10320;49.482;11.256;2024-02-04T03:37:11;1.90;;;1.80;;
20324;SDS011;10320;49.482;11.256;2024-02-04T03:39:38;2.17;;;1.60;;
20324;SDS011;10320;49.482;11.256;2024-02-04T03:42:04;2.23;;;2.00;;
20324;SDS011;10320;49.482;11.256;2024-02-04T03:44:30;2.00;;;1.50;;
20324;SDS011;10320;49.482;11.256;2024-02-04T03:46:56;2.33;;;1.80;;
20324;SDS011;10320;49.482;11.256;2024-02-04T03:49:22;2.47;;;1.80;;
20324;SDS011;10320;49.482;11.256;2024-02-04T03:51:48;2.23;;;1.80;;
20324;SDS011;10320;49.482;11.256;2024-02-04T03:54:14;2.00;;;1.80;;
20324;SDS011;10320;49.482;11.256;2024-02-04T03:56:40;2.20;;;2.00;;
20324;SDS011;10320;49.482;11.256;2024-02-04T03:59:07;2.17;;;1.97;;
20324;SDS011;10320;49.482;11.256;2024-02-04T04:01:35;2.20;;;2.00;;
20324;SDS011;10320;49.482;11.256;2024-02-04T04:04:01;2.30;;;1.93;;
20324;SDS011;10320;49.482;11.256;2024-02-04T04:06:27;2.23;;;1.90;;
20324;SDS011;10320;49.482;11.256;2024-02-04T04:08:53;2.13;;;1.93;;
20324;SDS011;10320;49.482;11.256;2024-02-04T04:11:19;2.20;;;2.00;;
20324;SDS011;10320;49.482;11.256;2024-02-04T04:13:45;2.23;;;1.93;;
20324;SDS011;10320;49.482;11.256;2024-02-04T04:16:11;2.20;;;2.00;;
20324;SDS011;10320;49.482;11.256;2024-02-04T04:18:37;2.13;;;1.93;;
20324;SDS011;10320;49.482;11.256;2024-02-04T04:21:03;2.37;;;2.13;;
20324;SDS011;10320;49.482;11.256;2024-02-04T04:23:29;2.10;;;1.90;;
20324;SDS011;10320;49.482;11.256;2024-02-04T04:25:55;2.40;;;2.20;;
20324;SDS011;10320;49.482;11.256;2024-02-04T04:28:21;3.20;;;2.30;;
20324;SDS011;10320;49.482;11.256;2024-02-04T04:30:47;2.53;;;2.10;;
20324;SDS011;10320;49.482;11.256;2024-02-04T04:33:13;2.40;;;2.20;;
20324;SDS011;10320;49.482;11.256;2024-02-04T04:35:39;2.30;;;2.10;;
20324;SDS011;10320;49.482;11.256;2024-02-04T04:38:05;2.30;;;2.10;;
20324;SDS011;10320;49.482;11.256;2024-02-04T04:40:31;2.27;;;2.07;;
20324;SDS011;10320;49.482;11.256;2024-02-04T04:42:57;2.23;;;2.03;;
20324;SDS011;10320;49.482;11.256;2024-02-04T04:45:23;2.50;;;2.30;;
20324;SDS011;10320;49.482;11.256;2024-02-04T04:47:49;2.23;;;2.03;;
20324;SDS011;10320;49.482;11.256;2024-02-04T04:50:15;2.17;;;1.97;;
20324;SDS011;10320;49.482;11.256;2024-02-04T04:52:41;2.73;;;1.90;;
20324;SDS011;10320;49.482;11.256;2024-02-04T04:55:07;2.20;;;2.00;;
20324;SDS011;10320;49.482;11.256;2024-02-04T04:57:33;2.47;;;2.13;;
20324;SDS011;10320;49.482;11.256;2024-02-04T04:59:59;2.20;;;2.00;;
20324;SDS011;10320;49.482;11.256;2024-02-04T05:02:31;2.10;;;1.93;;
20324;SDS011;10320;49.482;11.256;2024-02-04T05:04:57;3.23;;;2.20;;
20324;SDS011;10320;49.482;11.256;2024-02-04T05:07:23;2.20;;;2.00;;
20324;SDS011;10320;49.482;11.256;2024-02-04T05:09:49;3.10;;;2.23;;
20324;SDS011;10320;49.482;11.256;2024-02-04T05:12:15;1.90;;;1.80;;
20324;SDS011;10320;49.482;11.256;2024-02-04T05:14:41;2.10;;;1.80;;
20324;SDS011;10320;49.482;11.256;2024-02-04T05:17:07;1.70;;;1.60;;
20324;SDS011;10320;49.482;11.256;2024-02-04T05:19:34;2.30;;;1.80;;
20324;SDS011;10320;49.482;11.256;2024-02-04T05:22:00;1.97;;;1.80;;
20324;SDS011;10320;49.482;11.256;2024-02-04T05:24:26;1.80;;;1.70;;
20324;SDS011;10320;49.482;11.256;2024-02-04T05:26:52;1.37;;;1.27;;
20324;SDS011;10320;49.482;11.256;2024-02-04T05:29:18;1.97;;;1.47;;
20324;SDS011;10320;49.482;11.256;2024-02-04T05:31:44;1.50;;;1.40;;
20324;SDS011;10320;49.482;11.256;2024-02-04T05:34:10;1.40;;;1.30;;
20324;SDS011;10320;49.482;11.256;2024-02-04T05:36:36;1.30;;;1.20;;
20324;SDS011;10320;49.482;11.256;2024-02-04T05:39:13;1.77;;;1.30;;
20324;SDS011;10320;49.482;11.256;2024-02-04T05:41:39;1.17;;;1.07;;
20324;SDS011;10320;49.482;11.256;2024-02-04T05:44:05;1.33;;;1.23;;
20324;SDS011;10320;49.482;11.256;2024-02-04T05:46:33;2.23;;;1.30;;
20324;SDS011;10320;49.482;11.256;2024-02-04T05:48:59;1.40;;;1.30;;
20324;SDS011;10320;49.482;11.256;2024-02-04T05:51:25;2.77;;;1.23;;
20324;SDS011;10320;49.482;11.256;2024-02-04T05:53:51;1.40;;;1.30;;
20324;SDS011;10320;49.482;11.256;2024-02-04T05:56:17;1.70;;;1.13;;
20324;SDS011;10320;49.482;11.256;2024-02-04T05:58:45;1.20;;;1.10;;
20324;SDS011;10320;49.482;11.256;2024-02-04T06:01:11;0.73;;;0.70;;
20324;SDS011;10320;49.482;11.256;2024-02-04T06:03:37;1.10;;;0.93;;
20324;SDS011;10320;49.482;11.256;2024-02-04T06:06:03;1.00;;;0.90;;
20324;SDS011;10320;49.482;11.256;2024-02-04T06:08:29;0.93;;;0.83;;
20324;SDS011;10320;49.482;11.256;2024-02-04T06:10:55;1.10;;;1.00;;
20324;SDS011;10320;49.482;11.256;2024-02-04T06:13:21;0.80;;;0.80;;
20324;SDS011;10320;49.482;11.256;2024-02-04T06:15:47;1.43;;;0.97;;
20324;SDS011;10320;49.482;11.256;2024-02-04T06:18:13;0.77;;;0.77;;
20324;SDS011;10320;49.482;11.256;2024-02-04T06:20:39;1.20;;;1.00;;
20324;SDS011;10320;49.482;11.256;2024-02-04T06:23:05;0.80;;;0.80;;
20324;SDS011;10320;49.482;11.256;2024-02-04T06:25:31;1.10;;;1.00;;
20324;SDS011;10320;49.482;11.256;2024-02-04T06:27:57;0.80;;;0.80;;
20324;SDS011;10320;49.482;11.256;2024-02-04T06:30:23;0.77;;;0.77;;
20324;SDS011;10320;49.482;11.256;2024-02-04T06:32:49;1.40;;;0.97;;
20324;SDS011;10320;49.482;11.256;2024-02-04T06:35:15;0.90;;;0.80;;
20324;SDS011;10320;49.482;11.256;2024-02-04T06:37:42;1.37;;;0.80;;
20324;SDS011;10320;49.482;11.256;2024-02-04T06:40:08;1.47;;;0.90;;
20324;SDS011;10320;49.482;11.256;2024-02-04T06:42:34;0.60;;;0.60;;
20324;SDS011;10320;49.482;11.256;2024-02-04T06:45:00;0.90;;;0.90;;
20324;SDS011;10320;49.482;11.256;2024-02-04T06:47:26;1.37;;;0.80;;
20324;SDS011;10320;49.482;11.256;2024-02-04T06:49:52;0.80;;;0.80;;
20324;SDS011;10320;49.482;11.256;2024-02-04T06:52:18;0.73;;;0.70;;
20324;SDS011;10320;49.482;11.256;2024-02-04T06:54:44;0.77;;;0.73;;
20324;SDS011;10320;49.482;11.256;2024-02-04T06:57:10;1.13;;;0.80;;
20324;SDS011;10320;49.482;11.256;2024-02-04T06:59:36;0.67;;;0.67;;
20324;SDS011;10320;49.482;11.256;2024-02-04T07:02:02;0.67;;;0.67;;
20324;SDS011;10320;49.482;11.256;2024-02-04T07:04:28;0.90;;;0.87;;
20324;SDS011;10320;49.482;11.256;2024-02-04T07:06:54;1.40;;;0.80;;
20324;SDS011;10320;49.482;11.256;2024-02-04T07:09:20;0.97;;;0.80;;
20324;SDS011;10320;49.482;11.256;2024-02-04T07:11:46;0.90;;;0.90;;
20324;SDS011;10320;49.482;11.256;2024-02-04T07:14:13;1.10;;;1.00;;
20324;SDS011;10320;49.482;11.256;2024-02-04T07:16:39;0.70;;;0.70;;
20324;SDS011;10320;49.482;11.256;2024-02-04T07:19:05;0.87;;;0.80;;
20324;SDS011;10320;49.482;11.256;2024-02-04T07:21:32;0.70;;;0.70;;
20324;SDS011;10320;49.482;11.256;2024-02-04T07:23:58;1.33;;;0.80;;
20324;SDS011;10320;49.482;11.256;2024-02-04T07:26:24;0.90;;;0.90;;
20324;SDS011;10320;49.482;11.256;2024-02-04T07:28:50;1.03;;;0.83;;
20324;SDS011;10320;49.482;11.256;2024-02-04T07:31:16;0.80;;;0.80;;
20324;SDS011;10320;49.482;11.256;2024-02-04T07:33:42;0.90;;;0.80;;
20324;SDS011;10320;49.482;11.256;2024-02-04T07:36:08;0.67;;;0.67;;
20324;SDS011;10320;49.482;11.256;2024-02-04T07:38:34;0.73;;;0.73;;
20324;SDS011;10320;49.482;11.256;2024-02-04T07:41:00;0.90;;;0.80;;
20324;SDS011;10320;49.482;11.256;2024-02-04T07:43:26;0.70;;;0.70;;
20324;SDS011;10320;49.482;11.256;2024-02-04T07:45:53;0.77;;;0.77;;
20324;SDS011;10320;49.482;11.256;2024-02-04T07:48:19;1.43;;;0.83;;
20324;SDS011;10320;49.482;11.256;2024-02-04T07:50:45;0.60;;;0.60;;
20324;SDS011;10320;49.482;11.256;2024-02-04T07:53:11;1.10;;;0.67;;
20324;SDS011;10320;49.482;11.256;2024-02-04T07:55:38;0.77;;;0.50;;
20324;SDS011;10320;49.482;11.256;2024-02-04T07:58:04;0.40;;;0.40;;
20324;SDS011;10320;49.482;11.256;2024-02-04T08:00:30;0.63;;;0.63;;
20324;SDS011;10320;49.482;11.256;2024-02-04T08:02:56;0.83;;;0.63;;
20324;SDS011;10320;49.482;11.256;2024-02-04T08:05:22;0.60;;;0.60;;
20324;SDS011;10320;49.482;11.256;2024-02-04T08:07:48;1.43;;;0.60;;
20324;SDS011;10320;49.482;11.256;2024-02-04T08:10:14;0.87;;;0.70;;
20324;SDS011;10320;49.482;11.256;2024-02-04T08:12:41;0.50;;;0.50;;
20324;SDS011;10320;49.482;11.256;2024-02-04T08:15:07;0.50;;;0.50;;
20324;SDS011;10320;49.482;11.256;2024-02-04T08:17:33;0.60;;;0.60;;
20324;SDS011;10320;49.482;11.256;2024-02-04T08:19:59;1.33;;;0.80;;
20324;SDS011;10320;49.482;11.256;2024-02-04T08:22:25;0.50;;;0.47;;
20324;SDS011;10320;49.482;11.256;2024-02-04T08:24:51;0.60;;;0.60;;
20324;SDS011;10320;49.482;11.256;2024-02-04T08:27:17;0.60;;;0.60;;
20324;SDS011;10320;49.482;11.256;2024-02-04T08:29:43;0.50;;;0.50;;
20324;SDS011;10320;49.482;11.256;2024-02-04T08:32:09;0.70;;;0.70;;
20324;SDS011;10320;49.482;11.256;2024-02-04T08:34:36;1.17;;;0.50;;
20324;SDS011;10320;49.482;11.256;2024-02-04T08:37:02;0.37;;;0.37;;
20324;SDS011;10320;49.482;11.256;2024-02-04T08:39:28;1.23;;;0.70;;
20324;SDS011;10320;49.482;11.256;2024-02-04T08:41:55;0.60;;;0.60;;
20324;SDS011;10320;49.482;11.256;2024-02-04T08:44:21;0.77;;;0.50;;
20324;SDS011;10320;49.482;11.256;2024-02-04T08:46:47;0.60;;;0.60;;
20324;SDS011;10320;49.482;11.256;2024-02-04T08:49:13;0.60;;;0.60;;
20324;SDS011;10320;49.482;11.256;2024-02-04T08:51:39;0.60;;;0.60;;
20324;SDS011;10320;49.482;11.256;2024-02-04T08:54:05;0.50;;;0.50;;
20324;SDS011;10320;49.482;11.256;2024-02-04T08:56:31;0.93;;;0.70;;
20324;SDS011;10320;49.482;11.256;2024-02-04T08:58:57;1.40;;;0.70;;
20324;SDS011;10320;49.482;11.256;2024-02-04T09:01:24;1.27;;;0.53;;
20324;SDS011;10320;49.482;11.256;2024-02-04T09:03:50;0.43;;;0.43;;
20324;SDS011;10320;49.482;11.256;2024-02-04T09:06:16;1.20;;;0.60;;
20324;SDS011;10320;49.482;11.256;2024-02-04T09:08:42;0.53;;;0.53;;
20324;SDS011;10320;49.482;11.256;2024-02-04T09:11:08;0.50;;;0.50;;
20324;SDS011;10320;49.482;11.256;2024-02-04T09:13:34;0.50;;;0.50;;
20324;SDS011;10320;49.482;11.256;2024-02-04T09:16:00;0.57;;;0.57;;
20324;SDS011;10320;49.482;11.256;2024-02-04T09:18:26;0.50;;;0.50;;
20324;SDS011;10320;49.482;11.256;2024-02-04T09:20:53;0.70;;;0.70;;
20324;SDS011;10320;49.482;11.256;2024-02-04T09:23:19;0.50;;;0.50;;
20324;SDS011;10320;49.482;11.256;2024-02-04T09:25:45;0.53;;;0.53;;
20324;SDS011;10320;49.482;11.256;2024-02-04T09:28:11;0.60;;;0.60;;
20324;SDS011;10320;49.482;11.256;2024-02-04T09:30:38;0.40;;;0.40;;
20324;SDS011;10320;49.482;11.256;2024-02-04T09:33:04;0.60;;;0.60;;
20324;SDS011;10320;49.482;11.256;2024-02-04T09:35:30;0.43;;;0.43;;
20324;SDS011;10320;49.482;11.256;2024-02-04T09:37:56;0.70;;;0.60;;
20324;SDS011;10320;49.482;11.256;2024-02-04T09:40:22;0.60;;;0.60;;
20324;SDS011;10320;49.482;11.256;2024-02-04T09:42:48;0.60;;;0.50;;
20324;SDS011;10320;49.482;11.256;2024-02-04T09:45:14;0.67;;;0.60;;
20324;SDS011;10320;49.482;11.256;2024-02-04T09:47:40;0.63;;;0.60;;
20324;SDS011;10320;49.482;11.256;2024-02-04T09:50:08;0.43;;;0.40;;
20324;SDS011;10320;49.482;11.256;2024-02-04T09:52:34;0.60;;;0.60;;
20324;SDS011;10320;49.482;11.256;2024-02-04T09:55:02;0.50;;;0.50;;
20324;SDS011;10320;49.482;11.256;2024-02-04T09:57:30;0.60;;;0.60;;
20324;SDS011;10320;49.482;11.256;2024-02-04T09:59:57;0.60;;;0.60;;
20324;SDS011;10320;49.482;11.256;2024-02-04T10:02:23;0.73;;;0.65;;
20324;SDS011;10320;49.482;11.256;2024-02-04T10:04:50;0.90;;;0.70;;
20324;SDS011;10320;49.482;11.256;2024-02-04T10:07:16;0.60;;;0.60;;
20324;SDS011;10320;49.482;11.256;2024-02-04T10:09:43;0.60;;;0.60;;
20324;SDS011;10320;49.482;11.256;2024-02-04T10:12:09;0.47;;;0.47;;
20324;SDS011;10320;49.482;11.256;2024-02-04T10:14:35;0.73;;;0.60;;
20324;SDS011;10320;49.482;11.256;2024-02-04T10:17:02;0.60;;;0.60;;
20324;SDS011;10320;49.482;11.256;2024-02-04T10:19:28;0.80;;;0.60;;
20324;SDS011;10320;49.482;11.256;2024-02-04T10:21:57;0.97;;;0.70;;
20324;SDS011;10320;49.482;11.256;2024-02-04T10:24:24;0.70;;;0.70;;
20324;SDS011;10320;49.482;11.256;2024-02-04T10:26:50;0.80;;;0.70;;
20324;SDS011;10320;49.482;11.256;2024-02-04T10:29:17;2.03;;;1.23;;
20324;SDS011;10320;49.482;11.256;2024-02-04T10:31:43;1.00;;;0.80;;
20324;SDS011;10320;49.482;11.256;2024-02-04T10:34:09;0.50;;;0.50;;
20324;SDS011;10320;49.482;11.256;2024-02-04T10:36:35;0.50;;;0.50;;
20324;SDS011;10320;49.482;11.256;2024-02-04T10:39:03;0.60;;;0.60;;
20324;SDS011;10320;49.482;11.256;2024-02-04T10:41:29;0.60;;;0.60;;
20324;SDS011;10320;49.482;11.256;2024-02-04T10:43:55;1.83;;;0.67;;
20324;SDS011;10320;49.482;11.256;2024-02-04T10:46:22;0.50;;;0.43;;
20324;SDS011;10320;49.482;11.256;2024-02-04T10:48:55;0.47;;;0.47;;
20324;SDS011;10320;49.482;11.256;2024-02-04T10:51:23;0.40;;;0.40;;
20324;SDS011;10320;49.482;11.256;2024-02-04T10:53:51;0.40;;;0.40;;
20324;SDS011;10320;49.482;11.256;2024-02-04T10:56:30;0.50;;;0.50;;
20324;SDS011;10320;49.482;11.256;2024-02-04T10:58:58;0.43;;;0.43;;
20324;SDS011;10320;49.482;11.256;2024-02-04T11:01:25;1.53;;;0.50;;
20324;SDS011;10320;49.482;11.256;2024-02-04T11:03:51;1.23;;;0.67;;
20324;SDS011;10320;49.482;11.256;2024-02-04T11:06:18;0.60;;;0.60;;
20324;SDS011;10320;49.482;11.256;2024-02-04T11:08:46;0.50;;;0.50;;
20324;SDS011;10320;49.482;11.256;2024-02-04T11:11:12;0.63;;;0.63;;
20324;SDS011;10320;49.482;11.256;2024-02-04T11:13:39;0.70;;;0.70;;
20324;SDS011;10320;49.482;11.256;2024-02-04T11:16:07;2.07;;;0.67;;
20324;SDS011;10320;49.482;11.256;2024-02-04T11:26:19;0.50;;;0.50;;
20324;SDS011;10320;49.482;11.256;2024-02-04T11:28:46;0.60;;;0.60;;
20324;SDS011;10320;49.482;11.256;2024-02-04T11:31:18;0.50;;;0.40;;
20324;SDS011;10320;49.482;11.256;2024-02-04T11:33:44;0.43;;;0.40;;
20324;SDS011;10320;49.482;11.256;2024-02-04T11:36:14;0.93;;;0.60;;
20324;SDS011;10320;49.482;11.256;2024-02-04T11:38:40;0.47;;;0.47;;
20324;SDS011;10320;49.482;11.256;2024-02-04T11:41:07;0.57;;;0.57;;
20324;SDS011;10320;49.482;11.256;2024-02-04T11:43:33;0.57;;;0.50;;
20324;SDS011;10320;49.482;11.256;2024-02-04T11:46:00;2.73;;;0.60;;
20324;SDS011;10320;49.482;11.256;2024-02-04T11:48:29;1.90;;;0.63;;
20324;SDS011;10320;49.482;11.256;2024-02-04T11:50:56;0.50;;;0.50;;
20324;SDS011;10320;49.482;11.256;2024-02-04T11:53:23;0.93;;;0.70;;
20324;SDS011;10320;49.482;11.256;2024-02-04T11:55:52;0.63;;;0.63;;
20324;SDS011;10320;49.482;11.256;2024-02-04T11:58:18;1.30;;;0.73;;
20324;SDS011;10320;49.482;11.256;2024-02-04T12:00:45;0.70;;;0.70;;
20324;SDS011;10320;49.482;11.256;2024-02-04T12:03:11;0.60;;;0.40;;
20324;SDS011;10320;49.482;11.256;2024-02-04T12:05:37;0.67;;;0.63;;
20324;SDS011;10320;49.482;11.256;2024-02-04T12:08:06;0.80;;;0.53;;
20324;SDS011;10320;49.482;11.256;2024-02-04T12:10:33;0.50;;;0.50;;
20324;SDS011;10320;49.482;11.256;2024-02-04T12:13:03;0.50;;;0.50;;
20324;SDS011;10320;49.482;11.256;2024-02-04T12:15:29;0.63;;;0.63;;
20324;SDS011;10320;49.482;11.256;2024-02-04T12:17:56;0.80;;;0.77;;
20324;SDS011;10320;49.482;11.256;2024-02-04T12:20:30;1.10;;;0.70;;
20324;SDS011;10320;49.482;11.256;2024-02-04T12:22:56;1.13;;;0.60;;
20324;SDS011;10320;49.482;11.256;2024-02-04T12:25:23;1.50;;;0.60;;
20324;SDS011;10320;49.482;11.256;2024-02-04T12:27:51;0.57;;;0.40;;
20324;SDS011;10320;49.482;11.256;2024-02-04T12:30:17;0.80;;;0.80;;
20324;SDS011;10320;49.482;11.256;2024-02-04T12:32:43;0.50;;;0.50;;
20324;SDS011;10320;49.482;11.256;2024-02-04T12:35:13;0.60;;;0.60;;
20324;SDS011;10320;49.482;11.256;2024-02-04T12:37:49;0.63;;;0.60;;
20324;SDS011;10320;49.482;11.256;2024-02-04T12:40:20;0.50;;;0.50;;
20324;SDS011;10320;49.482;11.256;2024-02-04T12:42:51;0.40;;;0.40;;
20324;SDS011;10320;49.482;11.256;2024-02-04T12:45:17;0.53;;;0.50;;
20324;SDS011;10320;49.482;11.256;2024-02-04T12:47:43;1.27;;;0.70;;
20324;SDS011;10320;49.482;11.256;2024-02-04T12:50:10;0.47;;;0.47;;
20324;SDS011;10320;49.482;11.256;2024-02-04T12:52:37;0.40;;;0.40;;
20324;SDS011;10320;49.482;11.256;2024-02-04T12:55:04;0.63;;;0.47;;
20324;SDS011;10320;49.482;11.256;2024-02-04T12:57:31;0.60;;;0.60;;
20324;SDS011;10320;49.482;11.256;2024-02-04T13:00:03;0.97;;;0.80;;
20324;SDS011;10320;49.482;11.256;2024-02-04T13:02:33;0.57;;;0.57;;
20324;SDS011;10320;49.482;11.256;2024-02-04T13:05:00;1.10;;;0.60;;
20324;SDS011;10320;49.482;11.256;2024-02-04T13:07:26;0.60;;;0.53;;
20324;SDS011;10320;49.482;11.256;2024-02-04T13:09:58;1.10;;;0.90;;
20324;SDS011;10320;49.482;11.256;2024-02-04T13:12:27;0.60;;;0.60;;
20324;SDS011;10320;49.482;11.256;2024-02-04T13:14:54;0.53;;;0.53;;
20324;SDS011;10320;49.482;11.256;2024-02-04T13:17:20;0.53;;;0.53;;
20324;SDS011;10320;49.482;11.256;2024-02-04T13:19:46;0.63;;;0.63;;
20324;SDS011;10320;49.482;11.256;2024-02-04T13:22:12;1.50;;;1.40;;
20324;SDS011;10320;49.482;11.256;2024-02-04T13:24:41;0.60;;;0.60;;
20324;SDS011;10320;49.482;11.256;2024-02-04T13:27:06;0.60;;;0.60;;
20324;SDS011;10320;49.482;11.256;2024-02-04T13:29:34;0.93;;;0.93;;
20324;SDS011;10320;49.482;11.256;2024-02-04T13:32:00;0.93;;;0.87;;
20324;SDS011;10320;49.482;11.256;2024-02-04T13:34:26;0.60;;;0.60;;
20324;SDS011;10320;49.482;11.256;2024-02-04T13:36:52;1.37;;;0.57;;
20324;SDS011;10320;49.482;11.256;2024-02-04T13:39:18;2.10;;;0.87;;
20324;SDS011;10320;49.482;11.256;2024-02-04T13:41:44;0.67;;;0.63;;
20324;SDS011;10320;49.482;11.256;2024-02-04T13:44:10;0.60;;;0.60;;
20324;SDS011;10320;49.482;11.256;2024-02-04T13:46:36;1.20;;;0.97;;
20324;SDS011;10320;49.482;11.256;2024-02-04T13:49:04;0.73;;;0.73;;
20324;SDS011;10320;49.482;11.256;2024-02-04T13:51:31;0.70;;;0.70;;
20324;SDS011;10320;49.482;11.256;2024-02-04T13:53:57;0.50;;;0.50;;
20324;SDS011;10320;49.482;11.256;2024-02-04T13:56:23;0.83;;;0.83;;
20324;SDS011;10320;49.482;11.256;2024-02-04T13:58:49;0.70;;;0.70;;
20324;SDS011;10320;49.482;11.256;2024-02-04T14:01:15;0.70;;;0.70;;
20324;SDS011;10320;49.482;11.256;2024-02-04T14:03:43;0.60;;;0.43;;
20324;SDS011;10320;49.482;11.256;2024-02-04T14:06:09;0.60;;;0.60;;
20324;SDS011;10320;49.482;11.256;2024-02-04T14:08:37;1.23;;;0.87;;
20324;SDS011;10320;49.482;11.256;2024-02-04T14:11:03;0.97;;;0.87;;
20324;SDS011;10320;49.482;11.256;2024-02-04T14:13:29;0.60;;;0.50;;
20324;SDS011;10320;49.482;11.256;2024-02-04T14:15:57;0.60;;;0.60;;
20324;SDS011;10320;49.482;11.256;2024-02-04T14:18:23;0.87;;;0.80;;
20324;SDS011;10320;49.482;11.256;2024-02-04T14:20:50;1.13;;;0.90;;
20324;SDS011;10320;49.482;11.256;2024-02-04T14:23:16;0.80;;;0.80;;
20324;SDS011;10320;49.482;11.256;2024-02-04T14:25:42;0.87;;;0.87;;
20324;SDS011;10320;49.482;11.256;2024-02-04T14:28:08;0.93;;;0.90;;
20324;SDS011;10320;49.482;11.256;2024-02-04T14:30:34;0.80;;;0.80;;
20324;SDS011;10320;49.482;11.256;2024-02-04T14:33:00;0.93;;;0.90;;
20324;SDS011;10320;49.482;11.256;2024-02-04T14:35:28;1.13;;;1.03;;
20324;SDS011;10320;49.482;11.256;2024-02-04T14:37:54;3.77;;;2.03;;
20324;SDS011;10320;49.482;11.256;2024-02-04T14:40:20;3.27;;;2.00;;
20324;SDS011;10320;49.482;11.256;2024-02-04T14:42:45;2.33;;;1.93;;